AirNav   Air Wisconsin Up To $57,000 Bonus
 
 1112 users online  

1AR2 Taylor Airstrip
Des Arc, Arkansas, USA

GOING TO DES ARC?


FAA INFORMATION EFFECTIVE 22 APRIL 2021

Location

FAA Identifier: 1AR2
Lat/Long: 34-59-12.4200N 091-33-01.0800W
34-59.207000N 091-33.018000W
34.9867833,-91.5503000
(estimated)
Elevation: 208 ft. / 63 m (estimated)
Variation: 02E (1995)
From city: 2 miles W of DES ARC, AR
Time zone: UTC -5 (UTC -6 during Standard Time)
Zip code: 72040

Airport Operations

Airport use: Private use. Permission required prior to landing
Activation date: 10/1996
Control tower: no
ARTCC: MEMPHIS CENTER
FSS: JONESBORO FLIGHT SERVICE STATION
Attendance: MON-SAT 0800-1700
Segmented circle: no

Airport Communications

WX AWOS-2 at 4M3 (13 nm SW): 119.275 (870-552-1445)
WX AWOS-3PT at SRC (16 nm NW): 128.325 (501-268-4280)

Nearby radio navigation aids

VOR radial/distance  VOR name  Freq  Var
LITr054/36.2LITTLE ROCK VORTAC113.9005E

 
NDB name  Hdg/Dist  Freq  Var  ID
CERCY126/13.237502EDS -.. ...

Airport Services

Runway Information

Runway 9/27

Dimensions: 2640 x 200 ft. / 805 x 61 m
Surface: turf
RUNWAY 9  RUNWAY 27
Traffic pattern: leftleft
Obstructions: 35 ft. plines, 1320 ft. from runway35 ft. pline, 15 ft. from runway

Airport Ownership and Management from official FAA records

Ownership: Privately-owned
Owner: STEVEN TAYLOR
12244 WILLIE B ROAD
DES ARC, AR 72040
Phone (501) 516-5874
Manager: STEVEN TAYLOR
12244 WILLIE B ROAD
DES ARC, AR 72040
Phone 501-516-5874

Airport Operational Statistics

Aircraft based on the field: 4
Single engine airplanes: 3
Multi engine airplanes: 1
    

Additional Remarks

FOR CD CTC LITTLE ROCK APCH 501-379-2908 OR LITTLE ROCK ATCT 501-379-2911.

Instrument Procedures

There are no published instrument procedures at 1AR2.

Some nearby airports with instrument procedures:

4M3 - Carlisle Municipal Airport (13 nm SW)
KSRC - Searcy Municipal Airport (16 nm NW)
M36 - Frank Federer Memorial Airport (19 nm E)
M60 - Woodruff County Airport (22 nm NE)
KSGT - Stuttgart Municipal Airport / Carl Humphrey Field (23 nm S)
 
Loc | Ops | Rwys | IFR | FBO | Links
Com | Nav | Svcs | Stats | Notes
Area around 1AR2 (Taylor Airstrip)
 
Road maps at: MapQuest Bing Google
 
Aerial photo
No photo
 
Sectional chart

 
Airport distance calculator
Flying to Taylor Airstrip? Find the distance to fly.

From to 1AR2

Sunrise and sunset
Times for 16-May-2021
 Local
(UTC-5)
 Zulu
(UTC)
Morning civil twilight05:3510:35
Sunrise06:0311:03
Sunset20:0201:02
Evening civil twilight20:3001:30

Current date and time
Zulu (UTC)  16-May-2021 21:47:26
Local (UTC-5)  16-May-2021 16:47:26
 
METAR
KSRC 
18nm NW 
162056Z AUTO 17015KT 10SM FEW065 28/15 A3004 RMK AO2 SLP172 T02780150 57017
KSGT 
23nm S 
162056Z AUTO 15015KT 10SM CLR 28/12 A3005 RMK AO2 SLP174 T02830122 56018
KLRF 
30nm W 
162056Z 14010G15KT 7SM SCT050 BKN250 28/13 A3003 RMK AO2A PRESFR SLPNO T02820125 $
KORK 
36nm W 
162130Z AUTO 14011G17KT 10SM CLR 26/11 A3002 RMK AO2
TAF
KLRF 
30nm W 
161506Z 1615/1721 18009KT 9999 SCT045 SCT250 QNH3011INS BECMG 1616/1617 18010G15KT 9999 BKN045 BKN250 QNH3000INS BECMG 1622/1623 17009KT 9999 SCT060 BKN140 BKN220 QNH2999INS BECMG 1703/1704 15009KT 9999 VCSH BKN040 OVC140 QNH2998INS BECMG 1704/1705 14009KT 8000 -SHRA BKN035 OVC110 QNH2997INS BECMG 1707/1708 16009KT 9000 -SHRA SCT018 BKN024 OVC080 WS020/19035KT QNH2996INS TEMPO 1710/1713 16010G15KT 8000 -TSRA SCT005 BKN011CB BECMG 1712/1713 14012G20KT 6000 -TSRA OVC005CB QNH2993INS BECMG 1716/171
KLIT 
37nm SW 
161739Z 1618/1718 17008G18KT P6SM BKN045 BKN250 FM170300 17008KT P6SM VCSH OVC100 FM170600 16007KT P6SM -SHRA OVC050 FM171200 16008KT P6SM -SHRA OVC015
NOTAMs
Click for the latest NOTAMs
NOTAMs are issued by the DoD/FAA and will open in a separate window not controlled by AirNav.

 

 
 

Would you like to see your business listed on this page?

 If your business provides an interesting product or service to pilots, flight crews, aircraft, or users of the Taylor Airstrip, you should consider listing it here.  To start the listing process, click on the button below
 
Add a business
 

Other Pages about Taylor Airstrip

Update a link
 
Copyright © AirNav, LLC. All rights reserved. Privacy Policy  Contact